createdAt,value
2019-05-25T00:01:58.130Z,97.60
2019-05-25T00:04:26.328Z,97.60
2019-05-25T00:06:54.532Z,97.90
2019-05-25T00:09:22.736Z,98.00
2019-05-25T00:11:50.936Z,98.00
2019-05-25T00:14:19.137Z,98.10
2019-05-25T00:16:47.332Z,98.20
2019-05-25T00:19:15.537Z,98.20
2019-05-25T00:21:43.732Z,98.20
2019-05-25T00:24:12.878Z,98.20
2019-05-25T00:26:41.337Z,98.40
2019-05-25T00:29:09.544Z,98.20
2019-05-25T00:31:37.740Z,98.20
2019-05-25T00:34:05.944Z,98.20
2019-05-25T00:36:34.153Z,98.20
2019-05-25T00:39:02.356Z,98.20
2019-05-25T00:41:30.557Z,98.20
2019-05-25T00:43:58.770Z,98.30
2019-05-25T00:46:26.964Z,98.50
2019-05-25T00:48:55.169Z,98.50
2019-05-25T00:51:23.364Z,98.60
2019-05-25T00:53:51.568Z,98.40
2019-05-25T00:56:19.767Z,98.50
2019-05-25T00:58:47.968Z,98.60
2019-05-25T01:01:16.170Z,98.80
2019-05-25T01:03:44.376Z,98.80
2019-05-25T01:06:12.572Z,98.70
2019-05-25T01:08:40.783Z,98.50
2019-05-25T01:11:08.984Z,98.50
2019-05-25T01:13:37.202Z,98.40
2019-05-25T01:16:05.468Z,98.20
2019-05-25T01:18:33.664Z,98.00
2019-05-25T01:21:01.864Z,98.10
2019-05-25T01:23:30.068Z,98.00
2019-05-25T01:25:58.264Z,98.40
2019-05-25T01:28:26.469Z,98.20
2019-05-25T01:30:54.669Z,98.20
2019-05-25T01:33:22.872Z,98.20
2019-05-25T01:35:51.072Z,98.30
2019-05-25T01:38:19.274Z,98.60
2019-05-25T01:40:47.464Z,98.70
2019-05-25T01:43:15.664Z,98.60
2019-05-25T01:45:43.871Z,98.70
2019-05-25T01:48:12.072Z,98.80
2019-05-25T01:50:40.277Z,98.80
2019-05-25T01:53:11.506Z,99.00
2019-05-25T01:55:38.488Z,99.00
2019-05-25T01:58:06.682Z,98.80
2019-05-25T02:00:34.884Z,98.70
2019-05-25T02:03:03.132Z,98.70
2019-05-25T02:05:31.376Z,98.90
2019-05-25T02:07:59.573Z,99.40
2019-05-25T02:10:27.772Z,99.10
2019-05-25T02:12:55.974Z,99.20
2019-05-25T02:15:24.177Z,99.40
2019-05-25T02:17:52.371Z,99.40
2019-05-25T02:20:20.577Z,99.60
2019-05-25T02:22:48.788Z,99.40
2019-05-25T02:25:18.769Z,99.30
2019-05-25T02:27:46.904Z,99.40
2019-05-25T02:30:15.114Z,99.40
2019-05-25T02:32:43.319Z,99.50
2019-05-25T02:35:17.344Z,99.60
2019-05-25T02:37:45.545Z,99.80
2019-05-25T02:40:13.748Z,99.80
2019-05-25T02:42:41.951Z,99.90
2019-05-25T02:45:10.155Z,99.80
2019-05-25T02:47:38.361Z,99.70
2019-05-25T02:50:07.726Z,99.90
2019-05-25T02:52:35.976Z,99.90
2019-05-25T02:55:04.821Z,99.90
2019-05-25T02:57:33.021Z,99.90
2019-05-25T03:00:01.227Z,99.90
2019-05-25T03:02:29.420Z,99.90
2019-05-25T03:04:57.624Z,99.90
2019-05-25T03:07:25.827Z,99.90
2019-05-25T03:09:54.033Z,99.90
2019-05-25T03:12:22.232Z,99.90
2019-05-25T03:14:50.440Z,99.90
2019-05-25T03:17:18.683Z,99.90
2019-05-25T03:19:46.877Z,99.90
2019-05-25T03:22:15.072Z,99.90
2019-05-25T03:24:43.273Z,99.90
2019-05-25T03:27:11.488Z,99.90
2019-05-25T03:29:39.701Z,99.90
2019-05-25T03:32:07.916Z,99.90
2019-05-25T03:34:36.123Z,99.90
2019-05-25T03:37:04.325Z,99.90
2019-05-25T03:39:32.520Z,99.90
2019-05-25T03:42:00.729Z,99.90
2019-05-25T03:44:28.924Z,99.90
2019-05-25T03:46:57.129Z,99.90
2019-05-25T03:49:25.332Z,99.90
2019-05-25T03:51:53.538Z,99.90
2019-05-25T03:54:21.733Z,99.90
2019-05-25T03:56:49.936Z,99.90
2019-05-25T03:59:18.132Z,99.90
2019-05-25T04:01:46.339Z,99.90
2019-05-25T04:04:14.532Z,99.90
2019-05-25T04:06:42.740Z,99.90
2019-05-25T04:09:10.940Z,99.90
2019-05-25T04:11:39.147Z,99.90
2019-05-25T04:14:07.352Z,99.90
2019-05-25T04:16:35.577Z,99.90
2019-05-25T04:19:03.843Z,99.90
2019-05-25T04:21:32.038Z,99.90
2019-05-25T04:24:00.240Z,99.90
2019-05-25T04:26:28.448Z,99.90
2019-05-25T04:28:56.647Z,99.90
2019-05-25T04:31:24.851Z,99.90
2019-05-25T04:33:53.040Z,99.90
2019-05-25T04:36:21.245Z,99.90
2019-05-25T04:38:49.470Z,99.90
2019-05-25T04:41:17.652Z,99.90
2019-05-25T04:43:45.848Z,99.90
2019-05-25T04:46:14.060Z,99.90
2019-05-25T04:48:42.262Z,99.90
2019-05-25T04:51:10.460Z,99.90
2019-05-25T04:53:38.656Z,99.90
2019-05-25T04:56:06.889Z,99.90
2019-05-25T04:58:35.086Z,99.90
2019-05-25T05:01:03.293Z,99.90
2019-05-25T05:03:31.500Z,99.90
2019-05-25T05:05:59.697Z,99.90
2019-05-25T05:08:27.896Z,99.90
2019-05-25T05:10:56.096Z,99.90
2019-05-25T05:13:24.300Z,99.90
2019-05-25T05:15:52.496Z,99.90
2019-05-25T05:18:20.696Z,99.60
2019-05-25T05:20:48.896Z,99.70
2019-05-25T05:23:17.109Z,99.50
2019-05-25T05:25:45.300Z,98.80
2019-05-25T05:28:13.499Z,99.30
2019-05-25T05:30:41.702Z,98.60
2019-05-25T05:33:09.905Z,99.00
2019-05-25T05:35:39.125Z,98.40
2019-05-25T05:38:07.484Z,98.20
2019-05-25T05:40:36.421Z,97.70
2019-05-25T05:43:07.924Z,97.20
2019-05-25T05:45:36.124Z,97.00
2019-05-25T05:48:04.328Z,97.90
2019-05-25T05:50:32.524Z,96.70
2019-05-25T05:53:01.396Z,96.80
2019-05-25T05:55:32.412Z,97.30
2019-05-25T05:58:01.925Z,96.80
2019-05-25T06:00:30.213Z,95.80
2019-05-25T06:02:58.657Z,96.60
2019-05-25T06:05:26.856Z,97.20
2019-05-25T06:07:55.054Z,97.40
2019-05-25T06:10:23.988Z,97.30
2019-05-25T06:12:52.192Z,96.00
2019-05-25T06:15:20.392Z,96.30
2019-05-25T06:17:48.601Z,95.00
2019-05-25T06:20:17.270Z,95.10
2019-05-25T06:22:45.473Z,95.70
2019-05-25T06:25:13.872Z,95.30
2019-05-25T06:27:42.056Z,93.70
2019-05-25T06:30:10.753Z,94.30
2019-05-25T06:32:39.071Z,92.90
2019-05-25T06:35:07.442Z,93.90
2019-05-25T06:37:35.689Z,93.60
2019-05-25T06:40:05.169Z,92.90
2019-05-25T06:42:33.381Z,92.70
2019-05-25T06:45:01.592Z,91.50
2019-05-25T06:47:29.799Z,91.20
2019-05-25T06:49:57.991Z,91.30
2019-05-25T06:52:26.205Z,90.40
2019-05-25T06:54:54.413Z,90.30
2019-05-25T06:57:22.616Z,90.30
2019-05-25T06:59:50.820Z,89.30
2019-05-25T07:02:22.482Z,90.00
2019-05-25T07:04:48.949Z,89.40
2019-05-25T07:07:17.152Z,90.60
2019-05-25T07:09:45.354Z,90.10
2019-05-25T07:12:13.562Z,90.00
2019-05-25T07:14:41.777Z,89.80
2019-05-25T07:17:09.974Z,87.60
2019-05-25T07:19:38.169Z,88.60
2019-05-25T07:22:06.436Z,87.70
2019-05-25T07:24:34.648Z,88.30
2019-05-25T07:27:02.847Z,84.90
2019-05-25T07:29:31.108Z,82.50
2019-05-25T07:31:59.328Z,83.30
2019-05-25T07:34:27.529Z,83.40
2019-05-25T07:36:55.736Z,79.70
2019-05-25T07:39:23.941Z,79.10
2019-05-25T07:41:52.140Z,79.80
2019-05-25T07:44:20.359Z,81.20
2019-05-25T07:46:48.552Z,82.90
2019-05-25T07:49:16.748Z,82.10
2019-05-25T07:51:44.952Z,79.80
2019-05-25T07:54:13.153Z,79.20
2019-05-25T07:56:41.389Z,80.30
2019-05-25T07:59:09.585Z,81.00
2019-05-25T08:01:37.786Z,80.80
2019-05-25T08:04:05.985Z,77.30
2019-05-25T08:06:34.192Z,75.50
2019-05-25T08:09:02.389Z,76.70
2019-05-25T08:11:30.602Z,73.30
2019-05-25T08:13:58.811Z,71.40
2019-05-25T08:16:27.016Z,72.80
2019-05-25T08:18:55.213Z,72.50
2019-05-25T08:21:23.421Z,73.40
2019-05-25T08:23:51.626Z,71.10
2019-05-25T08:26:19.825Z,69.70
2019-05-25T08:28:48.024Z,68.50
2019-05-25T08:31:16.243Z,64.40
2019-05-25T08:33:44.507Z,63.70
2019-05-25T08:36:12.713Z,62.40
2019-05-25T08:38:40.920Z,62.00
2019-05-25T08:41:09.128Z,62.70
2019-05-25T08:43:37.330Z,58.70
2019-05-25T08:46:05.538Z,57.60
2019-05-25T08:48:33.745Z,56.90
2019-05-25T08:51:01.944Z,55.00
2019-05-25T08:53:40.755Z,54.10
2019-05-25T08:56:00.064Z,55.70
2019-05-25T08:58:28.268Z,56.90
2019-05-25T09:00:56.474Z,56.60
2019-05-25T09:03:24.679Z,54.70
2019-05-25T09:05:52.887Z,51.70
2019-05-25T09:08:21.099Z,49.50
2019-05-25T09:10:49.292Z,49.90
2019-05-25T09:13:17.496Z,52.00
2019-05-25T09:15:45.765Z,45.10
2019-05-25T09:18:13.975Z,45.60
2019-05-25T09:20:42.168Z,48.20
2019-05-25T09:23:10.376Z,49.80
2019-05-25T09:25:38.576Z,45.80
2019-05-25T09:28:06.784Z,46.40
2019-05-25T09:30:34.981Z,46.30
2019-05-25T09:33:03.193Z,44.30
2019-05-25T09:35:31.392Z,45.30
2019-05-25T09:37:59.592Z,47.60
2019-05-25T09:40:27.792Z,47.20
2019-05-25T09:42:56.004Z,43.50
2019-05-25T09:45:24.188Z,44.20
2019-05-25T09:47:52.406Z,44.70
2019-05-25T09:50:20.603Z,46.50
2019-05-25T09:52:48.800Z,44.10
2019-05-25T09:55:16.996Z,45.80
2019-05-25T09:57:45.205Z,45.10
2019-05-25T10:00:15.029Z,45.90
2019-05-25T10:02:43.853Z,43.60
2019-05-25T10:05:12.370Z,45.90
2019-05-25T10:07:40.582Z,42.30
2019-05-25T10:10:08.848Z,43.60
2019-05-25T10:12:37.057Z,43.60
2019-05-25T10:15:06.292Z,43.30
2019-05-25T10:17:34.573Z,43.90
2019-05-25T10:20:02.837Z,44.00
2019-05-25T10:22:31.050Z,43.80
2019-05-25T10:24:59.248Z,43.60
2019-05-25T10:27:27.454Z,44.00
2019-05-25T10:29:55.652Z,45.80
2019-05-25T10:32:23.851Z,46.90
2019-05-25T10:34:52.056Z,47.60
2019-05-25T10:37:20.257Z,48.10
2019-05-25T10:39:48.512Z,46.70
2019-05-25T10:42:16.736Z,47.70
2019-05-25T10:44:44.940Z,48.70
2019-05-25T10:47:13.136Z,48.00
2019-05-25T10:49:41.340Z,47.00
2019-05-25T10:52:09.584Z,47.40
2019-05-25T10:54:37.788Z,47.60
2019-05-25T10:57:05.992Z,49.10
2019-05-25T10:59:34.264Z,49.90
2019-05-25T11:02:02.461Z,50.70
2019-05-25T11:04:30.660Z,48.30
2019-05-25T11:06:58.860Z,48.90
2019-05-25T11:09:27.068Z,46.00
2019-05-25T11:11:55.269Z,45.70
2019-05-25T11:14:23.494Z,45.90
2019-05-25T11:16:51.753Z,47.00
2019-05-25T11:19:19.966Z,46.80
2019-05-25T11:21:48.170Z,49.20
2019-05-25T11:24:16.364Z,47.70
2019-05-25T11:26:44.564Z,45.40
2019-05-25T11:29:12.791Z,44.20
2019-05-25T11:31:40.976Z,45.00
2019-05-25T11:34:09.185Z,45.80
2019-05-25T11:36:37.388Z,44.50
2019-05-25T11:39:06.633Z,45.00
2019-05-25T11:41:34.841Z,47.00
2019-05-25T11:44:03.049Z,44.90
2019-05-25T11:46:31.255Z,44.90
2019-05-25T11:48:59.457Z,45.10
2019-05-25T11:51:27.658Z,45.90
2019-05-25T11:53:55.864Z,47.20
2019-05-25T11:56:24.078Z,48.00
2019-05-25T11:58:52.276Z,45.60
2019-05-25T12:01:20.476Z,45.50
2019-05-25T12:03:48.680Z,46.50
2019-05-25T12:06:16.873Z,45.80
2019-05-25T12:08:45.092Z,47.60
2019-05-25T12:11:13.288Z,45.80
2019-05-25T12:13:41.488Z,44.00
2019-05-25T12:16:09.692Z,45.20
2019-05-25T12:18:37.896Z,46.20
2019-05-25T12:21:06.091Z,45.50
2019-05-25T12:23:34.293Z,47.50
2019-05-25T12:26:02.500Z,44.50
2019-05-25T12:28:30.696Z,45.90
2019-05-25T12:30:58.910Z,46.50
2019-05-25T12:33:27.099Z,47.70
2019-05-25T12:35:55.344Z,48.10
2019-05-25T12:38:23.520Z,48.30
2019-05-25T12:40:53.936Z,48.80
2019-05-25T12:43:21.704Z,50.40
2019-05-25T12:45:49.912Z,48.70
2019-05-25T12:48:18.112Z,48.60
2019-05-25T12:50:46.325Z,48.90
2019-05-25T12:53:14.524Z,49.20
2019-05-25T12:55:42.736Z,48.90
2019-05-25T12:58:10.937Z,48.50
2019-05-25T13:00:39.136Z,49.30
2019-05-25T13:03:10.840Z,50.10
2019-05-25T13:05:37.287Z,49.50
2019-05-25T13:08:05.485Z,50.00
2019-05-25T13:10:33.693Z,50.60
2019-05-25T13:13:02.392Z,49.60
2019-05-25T13:15:30.684Z,49.30
2019-05-25T13:17:58.880Z,50.10
2019-05-25T13:20:27.084Z,51.00
2019-05-25T13:22:55.291Z,48.30
2019-05-25T13:25:23.488Z,49.10
2019-05-25T13:27:51.714Z,49.60
2019-05-25T13:30:19.913Z,51.30
2019-05-25T13:32:48.115Z,50.30
2019-05-25T13:35:16.521Z,49.90
2019-05-25T13:37:44.717Z,48.80
2019-05-25T13:40:12.921Z,48.20
2019-05-25T13:42:41.125Z,49.80
2019-05-25T13:45:09.328Z,48.90
2019-05-25T13:47:37.534Z,50.10
2019-05-25T13:50:08.453Z,48.80
2019-05-25T13:52:36.655Z,49.60
2019-05-25T13:55:05.224Z,49.40
2019-05-25T13:57:33.433Z,49.30
2019-05-25T14:00:01.672Z,51.00
2019-05-25T14:02:29.924Z,49.80
2019-05-25T14:04:58.121Z,49.80
2019-05-25T14:07:26.324Z,50.20
2019-05-25T14:09:54.525Z,50.80
2019-05-25T14:12:22.727Z,51.00
2019-05-25T14:14:50.925Z,51.40
2019-05-25T14:17:19.134Z,52.30
2019-05-25T14:19:47.328Z,52.40
2019-05-25T14:22:15.528Z,52.50
2019-05-25T14:24:43.733Z,53.00
2019-05-25T14:27:11.939Z,53.80
2019-05-25T14:29:40.138Z,52.50
2019-05-25T14:32:08.372Z,52.10
2019-05-25T14:34:36.565Z,53.30
2019-05-25T14:37:04.765Z,55.00
2019-05-25T14:39:32.984Z,54.00
2019-05-25T14:42:01.168Z,52.40
2019-05-25T14:44:29.377Z,52.90
2019-05-25T14:46:57.572Z,52.80
2019-05-25T14:49:25.768Z,53.70
2019-05-25T14:51:53.971Z,54.90
2019-05-25T14:54:22.166Z,56.40
2019-05-25T14:56:50.375Z,55.70
2019-05-25T14:59:18.572Z,57.00
2019-05-25T15:02:01.413Z,55.00
2019-05-25T15:04:16.780Z,57.40
2019-05-25T15:06:44.981Z,59.40
2019-05-25T15:09:13.185Z,61.00
2019-05-25T15:11:41.396Z,59.70
2019-05-25T15:14:09.592Z,62.80
2019-05-25T15:16:37.814Z,65.20
2019-05-25T15:19:06.028Z,68.00
2019-05-25T15:21:34.259Z,70.10
2019-05-25T15:24:02.574Z,73.00
2019-05-25T15:26:30.832Z,74.70
2019-05-25T15:28:59.032Z,76.80
2019-05-25T15:31:27.236Z,80.10
2019-05-25T15:33:55.448Z,82.80
2019-05-25T15:36:23.652Z,85.80
2019-05-25T15:38:51.853Z,88.70
2019-05-25T15:41:20.057Z,89.60
2019-05-25T15:43:48.269Z,89.80
2019-05-25T15:46:16.472Z,90.30
2019-05-25T15:48:44.686Z,90.90
2019-05-25T15:51:12.880Z,91.10
2019-05-25T15:53:41.088Z,91.50
2019-05-25T15:56:09.296Z,91.20
2019-05-25T15:58:37.500Z,91.10
2019-05-25T16:01:05.704Z,90.80
2019-05-25T16:03:33.908Z,91.20
2019-05-25T16:06:02.114Z,91.10
2019-05-25T16:08:30.320Z,91.40
2019-05-25T16:10:58.596Z,91.70
2019-05-25T16:13:26.803Z,91.50
2019-05-25T16:15:55.012Z,92.20
2019-05-25T16:18:23.208Z,91.90
2019-05-25T16:20:51.414Z,92.30
2019-05-25T16:23:19.612Z,92.30
2019-05-25T16:25:47.890Z,92.30
2019-05-25T16:28:16.096Z,92.60
2019-05-25T16:30:44.292Z,92.90
2019-05-25T16:33:14.264Z,92.70
2019-05-25T16:35:42.432Z,92.80
2019-05-25T16:38:10.807Z,93.00
2019-05-25T16:40:39.112Z,93.20
2019-05-25T16:43:07.315Z,92.50
2019-05-25T16:45:35.520Z,92.70
2019-05-25T16:48:03.762Z,92.70
2019-05-25T16:50:31.940Z,92.90
2019-05-25T16:53:00.216Z,92.90
2019-05-25T16:55:28.420Z,93.10
2019-05-25T16:57:56.620Z,93.30
2019-05-25T17:00:28.776Z,93.30
2019-05-25T17:02:59.901Z,93.10
2019-05-25T17:05:28.164Z,94.20
2019-05-25T17:07:56.504Z,94.50
2019-05-25T17:10:24.707Z,94.40
2019-05-25T17:12:52.912Z,94.50
2019-05-25T17:15:21.137Z,94.90
2019-05-25T17:17:49.324Z,94.80
2019-05-25T17:20:17.799Z,94.90
2019-05-25T17:22:45.996Z,95.10
2019-05-25T17:25:14.201Z,95.00
2019-05-25T17:27:42.480Z,95.30
2019-05-25T17:30:10.756Z,95.00
2019-05-25T17:32:38.971Z,95.20
2019-05-25T17:35:07.240Z,95.30
2019-05-25T17:37:35.443Z,95.00
2019-05-25T17:40:07.864Z,95.00
2019-05-25T17:42:36.052Z,95.30
2019-05-25T17:45:05.393Z,95.30
2019-05-25T17:47:33.594Z,95.40
2019-05-25T17:50:01.800Z,95.10
2019-05-25T17:52:30.001Z,95.10
2019-05-25T17:54:58.201Z,95.40
2019-05-25T17:57:26.404Z,95.30
2019-05-25T17:59:54.683Z,95.40
2019-05-25T18:02:22.888Z,95.50
2019-05-25T18:04:51.088Z,95.70
2019-05-25T18:07:19.288Z,95.70
2019-05-25T18:09:47.505Z,96.20
2019-05-25T18:12:15.710Z,95.90
2019-05-25T18:14:43.921Z,95.60
2019-05-25T18:17:12.121Z,95.50
2019-05-25T18:19:40.328Z,95.90
2019-05-25T18:22:08.532Z,96.00
2019-05-25T18:24:36.731Z,95.30
2019-05-25T18:27:04.937Z,95.40
2019-05-25T18:29:33.179Z,95.50
2019-05-25T18:32:01.418Z,95.00
2019-05-25T18:34:29.621Z,94.90
2019-05-25T18:36:57.820Z,95.10
2019-05-25T18:39:26.024Z,95.40
2019-05-25T18:41:54.255Z,95.50
2019-05-25T18:44:22.452Z,95.40
2019-05-25T18:46:50.657Z,95.40
2019-05-25T18:49:18.852Z,95.90
2019-05-25T18:51:47.056Z,96.10
2019-05-25T18:54:15.264Z,96.40
2019-05-25T18:56:43.472Z,96.70
2019-05-25T18:59:11.672Z,96.60
2019-05-25T19:01:39.877Z,96.30
2019-05-25T19:04:08.076Z,96.50
2019-05-25T19:06:36.289Z,96.50
2019-05-25T19:09:06.928Z,96.80
2019-05-25T19:11:36.006Z,96.60
2019-05-25T19:14:04.312Z,96.90
2019-05-25T19:16:32.520Z,97.00
2019-05-25T19:19:00.729Z,97.00
2019-05-25T19:21:28.938Z,97.30
2019-05-25T19:23:57.140Z,97.20
2019-05-25T19:26:25.344Z,97.40
2019-05-25T19:28:53.590Z,97.30
2019-05-25T19:31:21.837Z,97.30
2019-05-25T19:33:50.034Z,97.50
2019-05-25T19:36:18.245Z,97.70
2019-05-25T19:38:46.444Z,97.90
2019-05-25T19:41:14.648Z,98.00
2019-05-25T19:43:42.848Z,98.10
2019-05-25T19:46:11.053Z,98.20
2019-05-25T19:48:39.255Z,98.30
2019-05-25T19:51:07.469Z,98.30
2019-05-25T19:53:35.668Z,98.30
2019-05-25T19:56:03.872Z,98.30
2019-05-25T19:58:32.076Z,98.50
2019-05-25T20:01:00.278Z,98.50
2019-05-25T20:03:28.481Z,98.60
2019-05-25T20:05:56.688Z,98.50
2019-05-25T20:08:24.888Z,98.50
2019-05-25T20:10:55.432Z,98.50
2019-05-25T20:13:23.016Z,98.40
2019-05-25T20:15:51.224Z,98.30
2019-05-25T20:18:19.493Z,98.30
2019-05-25T20:20:47.705Z,98.30
2019-05-25T20:23:15.913Z,98.20
2019-05-25T20:25:44.112Z,98.10
2019-05-25T20:28:12.313Z,97.80
2019-05-25T20:30:40.518Z,97.80
2019-05-25T20:33:08.715Z,98.00
2019-05-25T20:35:36.928Z,98.60
2019-05-25T20:38:05.140Z,98.60
2019-05-25T20:40:33.348Z,98.80
2019-05-25T20:43:01.548Z,99.00
2019-05-25T20:45:29.745Z,99.10
2019-05-25T20:47:57.949Z,99.50
2019-05-25T20:50:26.155Z,99.60
2019-05-25T20:52:54.369Z,99.80
2019-05-25T20:55:22.572Z,99.90
2019-05-25T20:57:50.775Z,99.90
2019-05-25T21:00:19.044Z,99.90
2019-05-25T21:03:04.723Z,99.90
2019-05-25T21:05:17.183Z,99.90
2019-05-25T21:07:45.382Z,99.90
2019-05-25T21:10:13.651Z,99.90
2019-05-25T21:12:41.860Z,99.90
2019-05-25T21:15:10.637Z,99.90
2019-05-25T21:17:38.842Z,99.90
2019-05-25T21:20:07.147Z,99.90
2019-05-25T21:22:35.354Z,99.90
2019-05-25T21:25:07.090Z,99.90
2019-05-25T21:27:35.308Z,99.90
2019-05-25T21:30:04.152Z,99.90
2019-05-25T21:32:32.357Z,99.90
2019-05-25T21:35:00.555Z,99.90
2019-05-25T21:37:28.772Z,99.90
2019-05-25T21:39:56.973Z,99.90
2019-05-25T21:42:25.187Z,99.90
2019-05-25T21:44:53.400Z,99.90
2019-05-25T21:47:21.602Z,99.90
2019-05-25T21:49:49.821Z,99.90
2019-05-25T21:52:18.042Z,99.90
2019-05-25T21:54:46.410Z,99.90
2019-05-25T21:57:14.612Z,99.90
2019-05-25T21:59:42.825Z,99.90
2019-05-25T22:02:11.060Z,99.90
2019-05-25T22:04:39.240Z,99.90
2019-05-25T22:07:07.449Z,99.90
2019-05-25T22:09:35.653Z,99.90
2019-05-25T22:12:03.861Z,99.90
2019-05-25T22:14:32.074Z,99.90
2019-05-25T22:17:00.280Z,99.90
2019-05-25T22:19:28.492Z,99.90
2019-05-25T22:21:56.696Z,99.90
2019-05-25T22:24:24.908Z,99.90
2019-05-25T22:26:53.114Z,99.90
2019-05-25T22:29:21.320Z,99.90
2019-05-25T22:31:49.516Z,99.90
2019-05-25T22:34:17.724Z,99.90
2019-05-25T22:36:45.926Z,99.90
2019-05-25T22:39:14.132Z,99.90
2019-05-25T22:41:42.340Z,99.90
2019-05-25T22:44:10.573Z,99.90
2019-05-25T22:46:38.776Z,99.90
2019-05-25T22:49:06.989Z,99.90
2019-05-25T22:51:35.199Z,99.90
2019-05-25T22:54:03.415Z,99.90
2019-05-25T22:56:31.610Z,99.90
2019-05-25T22:58:59.825Z,99.90
2019-05-25T23:01:28.024Z,99.90
2019-05-25T23:03:56.237Z,99.90
2019-05-25T23:06:24.436Z,99.90
2019-05-25T23:08:52.656Z,99.90
2019-05-25T23:11:20.852Z,99.90
2019-05-25T23:13:49.073Z,99.90
2019-05-25T23:16:17.276Z,99.90
2019-05-25T23:18:45.564Z,99.90
2019-05-25T23:21:13.769Z,99.90
2019-05-25T23:23:41.985Z,99.90
2019-05-25T23:26:10.192Z,99.90
2019-05-25T23:28:38.406Z,99.90
2019-05-25T23:31:06.600Z,99.90
2019-05-25T23:33:34.819Z,99.90
2019-05-25T23:36:03.024Z,99.90
2019-05-25T23:38:31.229Z,99.90
2019-05-25T23:40:59.432Z,99.90
2019-05-25T23:43:27.645Z,99.90
2019-05-25T23:45:55.844Z,99.90
2019-05-25T23:48:24.056Z,99.90
2019-05-25T23:50:52.256Z,99.90
2019-05-25T23:53:20.482Z,99.90
2019-05-25T23:55:48.685Z,99.90
2019-05-25T23:58:16.898Z,99.90
